createdAt,value
2024-01-16T00:00:22.870Z,9.50
2024-01-16T00:02:51.292Z,9.10
2024-01-16T00:05:19.784Z,8.95
2024-01-16T00:07:48.408Z,8.00
2024-01-16T00:10:17.170Z,8.40
2024-01-16T00:12:45.729Z,8.57
2024-01-16T00:15:14.061Z,8.82
2024-01-16T00:17:43.873Z,10.15
2024-01-16T00:20:12.951Z,11.05
2024-01-16T00:22:41.373Z,8.20
2024-01-16T00:25:10.631Z,7.40
2024-01-16T00:27:39.012Z,9.73
2024-01-16T00:30:08.628Z,11.77
2024-01-16T00:32:36.983Z,9.50
2024-01-16T00:35:07.401Z,10.48
2024-01-16T00:37:35.813Z,9.95
2024-01-16T00:40:05.532Z,9.00
2024-01-16T00:42:33.962Z,7.50
2024-01-16T00:45:02.296Z,9.70
2024-01-16T00:47:30.702Z,8.32
2024-01-16T00:49:59.117Z,9.57
2024-01-16T00:52:29.891Z,8.23
2024-01-16T00:54:58.230Z,13.23
2024-01-16T00:57:26.867Z,8.20
2024-01-16T00:59:55.253Z,10.00
2024-01-16T01:02:23.959Z,11.32
2024-01-16T01:04:52.397Z,9.35
2024-01-16T01:07:20.681Z,10.95
2024-01-16T01:09:50.393Z,7.78
2024-01-16T01:12:18.770Z,6.80
2024-01-16T01:14:47.257Z,7.85
2024-01-16T01:17:15.658Z,7.68
2024-01-16T01:19:44.007Z,6.88
2024-01-16T01:22:12.333Z,8.13
2024-01-16T01:24:42.090Z,7.32
2024-01-16T01:27:11.773Z,8.52
2024-01-16T01:29:40.171Z,6.90
2024-01-16T01:32:08.789Z,7.43
2024-01-16T01:34:37.170Z,5.68
2024-01-16T01:37:05.691Z,6.68
2024-01-16T01:39:34.055Z,6.40
2024-01-16T01:42:02.509Z,7.40
2024-01-16T01:44:32.278Z,8.90
2024-01-16T01:47:01.033Z,7.32
2024-01-16T01:49:30.605Z,5.85
2024-01-16T01:51:59.371Z,7.15
2024-01-16T01:54:29.261Z,9.55
2024-01-16T01:56:57.747Z,7.53
2024-01-16T01:59:26.092Z,8.07
2024-01-16T02:01:56.076Z,6.68
2024-01-16T02:04:24.804Z,7.63
2024-01-16T02:06:53.381Z,7.85
2024-01-16T02:09:21.685Z,9.30
2024-01-16T02:11:50.095Z,9.35
2024-01-16T02:14:18.611Z,10.23
2024-01-16T02:16:46.984Z,7.75
2024-01-16T02:19:16.868Z,7.82
2024-01-16T02:21:50.813Z,9.32
2024-01-16T02:24:22.191Z,7.47
2024-01-16T02:26:50.653Z,7.07
2024-01-16T02:29:19.177Z,7.20
2024-01-16T02:31:48.070Z,6.55
2024-01-16T02:34:19.650Z,5.90
2024-01-16T02:36:48.313Z,10.05
2024-01-16T02:39:17.084Z,8.90
2024-01-16T02:41:46.857Z,7.47
2024-01-16T02:44:15.308Z,7.82
2024-01-16T02:46:43.732Z,7.47
2024-01-16T02:49:12.100Z,7.38
2024-01-16T02:51:40.357Z,7.43
2024-01-16T02:54:09.645Z,6.80
2024-01-16T02:56:37.977Z,6.65
2024-01-16T02:59:07.781Z,9.35
2024-01-16T03:01:36.185Z,7.53
2024-01-16T03:04:05.009Z,8.35
2024-01-16T03:06:33.497Z,9.00
2024-01-16T03:09:01.926Z,5.82
2024-01-16T03:11:33.396Z,9.40
2024-01-16T03:14:02.227Z,7.22
2024-01-16T03:16:31.956Z,8.55
2024-01-16T03:19:00.467Z,7.53
2024-01-16T03:21:28.867Z,7.30
2024-01-16T03:23:57.233Z,7.85
2024-01-16T03:26:25.670Z,6.75
2024-01-16T03:28:54.043Z,7.35
2024-01-16T03:31:23.234Z,8.25
2024-01-16T03:33:53.070Z,7.80
2024-01-16T03:36:21.381Z,7.68
2024-01-16T03:38:49.841Z,6.50
2024-01-16T03:41:18.295Z,7.53
2024-01-16T03:43:46.583Z,8.70
2024-01-16T03:46:14.955Z,7.15
2024-01-16T03:48:43.387Z,9.25
2024-01-16T03:51:16.590Z,6.47
2024-01-16T03:53:45.062Z,9.05
2024-01-16T03:56:13.590Z,6.88
2024-01-16T03:58:43.356Z,6.32
2024-01-16T04:01:11.785Z,6.68
2024-01-16T04:03:40.628Z,5.80
2024-01-16T04:06:18.755Z,6.88
2024-01-16T04:08:47.406Z,6.25
2024-01-16T04:11:15.814Z,6.63
2024-01-16T04:13:44.556Z,8.82
2024-01-16T04:16:14.757Z,6.50
2024-01-16T04:18:45.886Z,6.95
2024-01-16T04:21:15.546Z,9.32
2024-01-16T04:23:46.778Z,7.68
2024-01-16T04:26:15.293Z,7.78
2024-01-16T04:28:43.943Z,7.57
2024-01-16T04:31:13.471Z,6.07
2024-01-16T04:33:42.343Z,8.10
2024-01-16T04:36:11.098Z,10.00
2024-01-16T04:38:39.465Z,6.25
2024-01-16T04:41:09.297Z,8.23
2024-01-16T04:43:37.644Z,8.48
2024-01-16T04:46:06.214Z,5.82
2024-01-16T04:48:34.685Z,6.60
2024-01-16T04:51:03.123Z,8.07
2024-01-16T04:53:31.455Z,5.43
2024-01-16T04:55:59.788Z,8.85
2024-01-16T04:58:29.512Z,7.32
2024-01-16T05:00:58.388Z,6.07
2024-01-16T05:03:26.818Z,5.15
2024-01-16T05:05:55.296Z,9.77
2024-01-16T05:08:23.902Z,7.03
2024-01-16T05:10:52.214Z,7.47
2024-01-16T05:13:20.546Z,9.43
2024-01-16T05:15:52.427Z,6.05
2024-01-16T05:18:21.000Z,4.47
2024-01-16T05:20:49.674Z,6.18
2024-01-16T05:23:19.098Z,6.05
2024-01-16T05:25:47.522Z,4.45
2024-01-16T05:28:14.866Z,7.15
2024-01-16T05:30:43.215Z,7.40
2024-01-16T05:33:13.035Z,5.50
2024-01-16T05:35:41.497Z,4.07
2024-01-16T05:38:09.901Z,5.18
2024-01-16T05:40:38.369Z,5.18
2024-01-16T05:43:06.734Z,8.18
2024-01-16T05:45:35.349Z,8.07
2024-01-16T05:48:03.987Z,5.15
2024-01-16T05:50:33.916Z,8.60
2024-01-16T05:53:02.343Z,4.85
2024-01-16T05:55:33.248Z,5.20
2024-01-16T05:58:01.678Z,5.82
2024-01-16T06:00:30.111Z,6.63
2024-01-16T06:02:58.767Z,6.35
2024-01-16T06:05:27.240Z,5.30
2024-01-16T06:07:57.680Z,6.13
2024-01-16T06:10:26.006Z,5.93
2024-01-16T06:12:54.296Z,11.13
2024-01-16T06:15:22.636Z,7.22
2024-01-16T06:17:51.085Z,4.70
2024-01-16T06:20:19.552Z,6.50
2024-01-16T06:22:47.919Z,8.85
2024-01-16T06:25:17.642Z,7.07
2024-01-16T06:27:46.397Z,7.45
2024-01-16T06:30:15.037Z,5.82
2024-01-16T06:32:45.236Z,7.47
2024-01-16T06:35:16.013Z,7.57
2024-01-16T06:37:44.418Z,8.95
2024-01-16T06:40:13.410Z,6.47
2024-01-16T06:42:43.069Z,12.00
2024-01-16T06:45:12.507Z,7.28
2024-01-16T06:47:41.961Z,4.15
2024-01-16T06:50:10.822Z,6.65
2024-01-16T06:52:39.148Z,18.35
2024-01-16T06:55:07.750Z,13.57
2024-01-16T06:57:36.167Z,9.20
2024-01-16T07:00:08.408Z,4.68
2024-01-16T07:02:36.837Z,5.20
2024-01-16T07:05:05.464Z,5.93
2024-01-16T07:07:33.933Z,10.70
2024-01-16T07:10:02.321Z,10.82
2024-01-16T07:12:30.730Z,21.10
2024-01-16T07:14:59.107Z,7.43
2024-01-16T07:17:28.891Z,22.38
2024-01-16T07:19:57.355Z,21.17
2024-01-16T07:22:25.758Z,29.67
2024-01-16T07:24:54.021Z,16.75
2024-01-16T07:27:22.403Z,9.50
2024-01-16T07:29:50.848Z,6.28
2024-01-16T07:32:19.347Z,5.97
2024-01-16T07:34:49.068Z,7.53
2024-01-16T07:37:18.816Z,5.97
2024-01-16T07:39:47.270Z,6.53
2024-01-16T07:42:15.656Z,4.63
2024-01-16T07:44:44.170Z,6.28
2024-01-16T07:47:12.619Z,5.70
2024-01-16T07:49:41.173Z,4.75
2024-01-16T07:52:10.959Z,5.95
2024-01-16T07:54:39.315Z,5.15
2024-01-16T07:57:07.709Z,4.88
2024-01-16T07:59:36.222Z,12.85
2024-01-16T08:02:06.380Z,5.47
2024-01-16T08:04:34.773Z,5.90
2024-01-16T08:07:03.302Z,8.57
2024-01-16T08:09:33.115Z,8.95
2024-01-16T08:12:03.448Z,7.72
2024-01-16T08:14:32.043Z,8.60
2024-01-16T08:17:00.521Z,4.25
2024-01-16T08:19:30.873Z,6.30
2024-01-16T08:21:59.287Z,6.45
2024-01-16T08:24:27.695Z,6.43
2024-01-16T08:27:00.798Z,8.63
2024-01-16T08:29:29.206Z,137.10
2024-01-16T08:31:57.669Z,44.70
2024-01-16T08:34:26.153Z,18.80
2024-01-16T08:36:58.308Z,8.57
2024-01-16T08:39:28.985Z,11.63
2024-01-16T08:41:59.032Z,8.10
2024-01-16T08:44:27.437Z,7.20
2024-01-16T08:46:56.094Z,5.05
2024-01-16T08:49:24.443Z,3.90
2024-01-16T08:51:53.166Z,7.05
2024-01-16T08:54:24.004Z,6.90
2024-01-16T08:56:52.456Z,7.88
2024-01-16T08:59:22.535Z,6.35
2024-01-16T09:01:51.165Z,6.15
2024-01-16T09:04:19.862Z,7.45
2024-01-16T09:06:48.507Z,6.72
2024-01-16T09:09:17.560Z,4.00
2024-01-16T09:11:45.940Z,7.07
2024-01-16T09:14:14.394Z,7.22
2024-01-16T09:16:44.223Z,7.68
2024-01-16T09:19:12.691Z,5.78
2024-01-16T09:21:41.136Z,5.03
2024-01-16T09:24:09.888Z,6.15
2024-01-16T09:26:38.616Z,4.13
2024-01-16T09:29:07.065Z,5.25
2024-01-16T09:31:37.260Z,5.28
2024-01-16T09:34:09.822Z,6.53
2024-01-16T09:36:38.954Z,6.25
2024-01-16T09:39:09.156Z,9.35
2024-01-16T09:41:37.580Z,7.45
2024-01-16T09:44:06.205Z,7.20
2024-01-16T09:46:34.902Z,8.27
2024-01-16T09:49:04.238Z,10.27
2024-01-16T09:51:34.023Z,8.38
2024-01-16T09:54:03.206Z,9.20
2024-01-16T09:56:32.402Z,7.63
2024-01-16T09:59:01.419Z,7.45
2024-01-16T10:01:30.522Z,8.68
2024-01-16T10:03:59.732Z,10.63
2024-01-16T10:06:30.097Z,9.75
2024-01-16T10:08:59.971Z,11.85
2024-01-16T10:11:28.384Z,11.52
2024-01-16T10:13:57.056Z,12.80
2024-01-16T10:16:26.117Z,9.68
2024-01-16T10:19:06.513Z,10.23
2024-01-16T10:21:35.146Z,13.90
2024-01-16T10:24:13.986Z,8.82
2024-01-16T10:26:42.670Z,11.50
2024-01-16T10:29:11.396Z,13.30
2024-01-16T10:31:41.652Z,9.77
2024-01-16T10:34:22.745Z,12.55
2024-01-16T10:36:51.619Z,11.35
2024-01-16T10:39:23.012Z,11.02
2024-01-16T10:41:57.785Z,9.40
2024-01-16T10:44:26.181Z,8.95
2024-01-16T10:46:54.537Z,6.15
2024-01-16T10:49:23.657Z,6.93
2024-01-16T10:51:52.979Z,6.93
2024-01-16T10:54:23.434Z,9.57
2024-01-16T10:56:52.799Z,6.15
2024-01-16T10:59:22.240Z,8.98
2024-01-16T11:01:51.503Z,8.65
2024-01-16T11:04:20.862Z,9.07
2024-01-16T11:06:50.825Z,7.97
2024-01-16T11:09:19.742Z,6.95
2024-01-16T11:11:49.933Z,7.93
2024-01-16T11:14:19.623Z,6.53
2024-01-16T11:16:49.775Z,7.85
2024-01-16T11:19:37.655Z,6.93
2024-01-16T11:22:08.827Z,5.43
2024-01-16T11:24:37.237Z,9.20
2024-01-16T11:27:07.253Z,8.55
2024-01-16T11:29:39.663Z,8.20
2024-01-16T11:32:18.211Z,9.80
2024-01-16T11:34:59.265Z,9.20
2024-01-16T11:37:29.473Z,8.50
2024-01-16T11:40:16.370Z,7.50
2024-01-16T11:42:46.249Z,12.80
2024-01-16T11:45:38.779Z,8.40
2024-01-16T11:48:13.455Z,11.38
2024-01-16T11:50:42.634Z,10.90
2024-01-16T11:53:11.477Z,7.95
2024-01-16T11:55:51.996Z,13.30
2024-01-16T11:58:29.063Z,5.50
2024-01-16T12:00:58.508Z,9.13
2024-01-16T12:05:58.446Z,11.52
2024-01-16T12:08:27.014Z,5.80
2024-01-16T12:10:55.450Z,10.52
2024-01-16T12:13:23.945Z,13.27
2024-01-16T12:16:01.884Z,12.82
2024-01-16T12:18:39.336Z,11.68
2024-01-16T12:21:13.193Z,10.43
2024-01-16T12:23:49.351Z,9.82
2024-01-16T12:26:23.358Z,9.15
2024-01-16T12:28:55.559Z,6.55
2024-01-16T12:31:27.754Z,36.90
2024-01-16T12:34:01.937Z,36.05
2024-01-16T12:36:33.210Z,19.65
2024-01-16T12:39:01.632Z,15.98
2024-01-16T12:41:36.880Z,9.43
2024-01-16T12:44:15.837Z,7.80
2024-01-16T12:46:47.677Z,7.35
2024-01-16T12:49:16.738Z,7.28
2024-01-16T12:51:45.232Z,5.97
2024-01-16T12:54:15.278Z,7.60
2024-01-16T12:56:44.113Z,6.68
2024-01-16T12:59:14.021Z,6.80
2024-01-16T13:01:44.973Z,7.30
2024-01-16T13:04:17.195Z,7.57
2024-01-16T13:06:47.824Z,9.13
2024-01-16T13:09:18.124Z,7.03
2024-01-16T13:11:53.641Z,7.25
2024-01-16T13:14:23.255Z,6.85
2024-01-16T13:16:52.035Z,192.30
2024-01-16T13:19:24.086Z,104.78
2024-01-16T13:21:52.813Z,39.95
2024-01-16T13:24:24.823Z,22.40
2024-01-16T13:26:53.898Z,13.32
2024-01-16T13:29:22.379Z,23.02
2024-01-16T13:31:56.142Z,22.40
2024-01-16T13:34:27.257Z,12.35
2024-01-16T13:37:14.616Z,11.07
2024-01-16T13:39:44.760Z,9.15
2024-01-16T13:42:13.123Z,6.70
2024-01-16T13:44:41.518Z,8.95
2024-01-16T13:47:13.463Z,8.45
2024-01-16T13:49:46.246Z,6.75
2024-01-16T13:52:14.779Z,9.75
2024-01-16T13:54:43.201Z,7.28
2024-01-16T13:57:14.344Z,11.75
2024-01-16T13:59:42.962Z,8.88
2024-01-16T14:02:11.521Z,8.48
2024-01-16T14:04:39.973Z,7.65
2024-01-16T14:07:13.110Z,7.25
2024-01-16T14:09:45.098Z,8.13
2024-01-16T14:12:15.174Z,5.55
2024-01-16T14:14:44.349Z,11.98
2024-01-16T14:17:13.326Z,8.88
2024-01-16T14:19:41.806Z,10.82
2024-01-16T14:22:11.592Z,13.30
2024-01-16T14:24:40.440Z,10.80
2024-01-16T14:27:09.111Z,11.13
2024-01-16T14:29:41.301Z,13.95
2024-01-16T14:32:11.285Z,10.57
2024-01-16T14:34:40.163Z,11.07
2024-01-16T14:37:08.580Z,8.90
2024-01-16T14:39:38.335Z,9.20
2024-01-16T14:42:08.740Z,7.80
2024-01-16T14:44:37.257Z,6.55
2024-01-16T14:47:05.631Z,7.30
2024-01-16T14:49:35.763Z,9.38
2024-01-16T14:52:04.372Z,11.23
2024-01-16T14:54:32.823Z,36.97
2024-01-16T14:57:02.707Z,16.38
2024-01-16T14:59:31.227Z,12.15
2024-01-16T15:01:59.621Z,10.45
2024-01-16T15:04:28.142Z,6.95
2024-01-16T15:06:56.917Z,7.53
2024-01-16T15:09:25.617Z,9.77
2024-01-16T15:11:54.124Z,8.73
2024-01-16T15:14:23.931Z,7.88
2024-01-16T15:16:53.031Z,9.50
2024-01-16T15:19:21.598Z,9.63
2024-01-16T15:21:49.962Z,10.85
2024-01-16T15:24:23.054Z,9.57
2024-01-16T15:26:51.644Z,8.38
2024-01-16T15:29:20.102Z,9.70
2024-01-16T15:31:50.265Z,7.25
2024-01-16T15:34:18.769Z,11.10
2024-01-16T15:36:49.051Z,10.55
2024-01-16T15:39:18.089Z,12.32
2024-01-16T15:41:46.790Z,15.07
2024-01-16T15:44:17.933Z,18.48
2024-01-16T15:47:03.856Z,17.55
2024-01-16T15:49:33.534Z,18.00
2024-01-16T15:52:02.938Z,30.17
2024-01-16T15:54:33.280Z,23.52
2024-01-16T15:57:01.917Z,23.25
2024-01-16T15:59:30.556Z,27.67
2024-01-16T16:02:01.915Z,21.70
2024-01-16T16:04:33.575Z,16.15
2024-01-16T16:07:02.462Z,12.93
2024-01-16T16:09:30.871Z,12.30
2024-01-16T16:11:59.456Z,11.38
2024-01-16T16:14:32.184Z,15.85
2024-01-16T16:17:03.338Z,20.67
2024-01-16T16:19:32.191Z,23.33
2024-01-16T16:22:02.131Z,32.72
2024-01-16T16:24:31.867Z,27.10
2024-01-16T16:27:01.168Z,20.10
2024-01-16T16:29:29.796Z,12.60
2024-01-16T16:31:59.511Z,9.60
2024-01-16T16:34:29.189Z,10.68
2024-01-16T16:36:58.214Z,11.55
2024-01-16T16:39:28.176Z,13.57
2024-01-16T16:41:56.750Z,13.30
2024-01-16T16:44:25.259Z,11.90
2024-01-16T16:46:53.696Z,11.60
2024-01-16T16:49:22.292Z,12.95
2024-01-16T16:51:50.674Z,30.25
2024-01-16T16:54:19.106Z,56.00
2024-01-16T16:56:48.964Z,55.55
2024-01-16T16:59:17.492Z,83.95
2024-01-16T17:01:46.351Z,71.78
2024-01-16T17:04:14.891Z,111.95
2024-01-16T17:06:43.523Z,114.47
2024-01-16T17:09:12.968Z,83.90
2024-01-16T17:11:41.677Z,85.78
2024-01-16T17:14:11.599Z,71.03
2024-01-16T17:16:41.337Z,85.95
2024-01-16T17:19:11.931Z,72.82
2024-01-16T17:21:42.859Z,54.25
2024-01-16T17:24:11.218Z,50.72
2024-01-16T17:26:40.713Z,34.97
2024-01-16T17:29:10.869Z,39.13
2024-01-16T17:31:39.514Z,38.20
2024-01-16T17:34:08.282Z,39.05
2024-01-16T17:36:41.127Z,108.80
2024-01-16T17:39:11.001Z,187.95
2024-01-16T17:41:39.898Z,372.65
2024-01-16T17:44:10.044Z,310.60
2024-01-16T17:46:39.830Z,136.00
2024-01-16T17:49:08.305Z,100.00
2024-01-16T17:51:36.781Z,51.28
2024-01-16T17:54:05.345Z,88.55
2024-01-16T17:56:34.211Z,69.05
2024-01-16T17:59:02.558Z,43.88
2024-01-16T18:01:31.112Z,17.45
2024-01-16T18:04:01.575Z,13.95
2024-01-16T18:06:30.356Z,12.23
2024-01-16T18:08:59.470Z,16.67
2024-01-16T18:11:28.005Z,15.93
2024-01-16T18:13:56.493Z,16.00
2024-01-16T18:16:27.696Z,14.30
2024-01-16T18:18:56.290Z,14.88
2024-01-16T18:21:27.174Z,15.13
2024-01-16T18:23:56.581Z,21.98
2024-01-16T18:26:26.061Z,24.40
2024-01-16T18:28:55.649Z,21.23
2024-01-16T18:31:24.241Z,21.98
2024-01-16T18:33:52.941Z,33.25
2024-01-16T18:36:21.456Z,86.10
2024-01-16T18:38:51.362Z,144.60
2024-01-16T18:41:19.824Z,414.23
2024-01-16T18:43:48.871Z,281.50
2024-01-16T18:46:21.730Z,182.85
2024-01-16T18:48:51.096Z,102.15
2024-01-16T18:51:20.124Z,31.98
2024-01-16T18:53:50.800Z,24.38
2024-01-16T18:56:20.707Z,24.33
2024-01-16T18:58:49.087Z,25.35
2024-01-16T19:01:17.498Z,37.00
2024-01-16T19:03:46.125Z,24.58
2024-01-16T19:06:14.672Z,23.67
2024-01-16T19:08:44.248Z,24.48
2024-01-16T19:11:12.724Z,26.77
2024-01-16T19:13:43.878Z,28.95
2024-01-16T19:16:12.495Z,24.23
2024-01-16T19:18:42.719Z,25.83
2024-01-16T19:21:11.743Z,24.48
2024-01-16T19:23:40.509Z,30.58
2024-01-16T19:26:10.248Z,21.70
2024-01-16T19:28:39.781Z,50.60
2024-01-16T19:31:09.952Z,26.35
2024-01-16T19:33:39.237Z,21.90
2024-01-16T19:36:07.812Z,23.73
2024-01-16T19:38:36.916Z,21.65
2024-01-16T19:41:05.581Z,22.15
2024-01-16T19:43:33.952Z,18.48
2024-01-16T19:46:03.739Z,20.27
2024-01-16T19:48:36.059Z,19.50
2024-01-16T19:51:04.677Z,17.55
2024-01-16T19:53:33.271Z,21.10
2024-01-16T19:56:06.304Z,19.75
2024-01-16T19:58:36.622Z,17.20
2024-01-16T20:01:04.987Z,17.88
2024-01-16T20:03:38.525Z,24.85
2024-01-16T20:06:09.610Z,18.25
2024-01-16T20:08:39.955Z,17.35
2024-01-16T20:11:09.093Z,20.13
2024-01-16T20:13:37.940Z,26.10
2024-01-16T20:16:08.764Z,17.90
2024-01-16T20:18:38.642Z,16.63
2024-01-16T20:21:07.222Z,18.23
2024-01-16T20:23:35.717Z,17.00
2024-01-16T20:26:04.237Z,20.85
2024-01-16T20:28:32.807Z,15.70
2024-01-16T20:31:01.479Z,17.40
2024-01-16T20:33:30.164Z,19.00
2024-01-16T20:36:00.020Z,22.23
2024-01-16T20:38:28.571Z,16.60
2024-01-16T20:40:57.401Z,17.00
2024-01-16T20:43:25.896Z,18.95
2024-01-16T20:45:55.913Z,16.95
2024-01-16T20:48:26.815Z,20.55
2024-01-16T20:50:55.312Z,19.33
2024-01-16T20:53:27.183Z,21.27
2024-01-16T20:55:55.764Z,17.95
2024-01-16T20:58:24.804Z,20.10
2024-01-16T21:00:53.325Z,23.10
2024-01-16T21:03:24.021Z,23.20
2024-01-16T21:05:55.426Z,30.02
2024-01-16T21:08:25.338Z,26.90
2024-01-16T21:10:53.713Z,23.55
2024-01-16T21:13:24.274Z,21.80
2024-01-16T21:15:52.788Z,33.38
2024-01-16T21:18:21.332Z,26.38
2024-01-16T21:20:49.801Z,35.10
2024-01-16T21:23:18.342Z,31.45
2024-01-16T21:25:48.020Z,27.45
2024-01-16T21:28:16.493Z,26.05
2024-01-16T21:30:44.881Z,25.42
2024-01-16T21:33:13.773Z,33.30
2024-01-16T21:35:43.801Z,41.03
2024-01-16T21:38:12.258Z,29.13
2024-01-16T21:40:40.651Z,39.67
2024-01-16T21:43:11.608Z,33.10
2024-01-16T21:45:40.253Z,25.50
2024-01-16T21:48:10.950Z,24.38
2024-01-16T21:50:39.873Z,29.33
2024-01-16T21:53:08.267Z,49.10
2024-01-16T21:55:36.695Z,74.45
2024-01-16T21:58:05.621Z,88.88
2024-01-16T22:00:35.449Z,104.75
2024-01-16T22:03:03.850Z,117.72
2024-01-16T22:05:32.809Z,66.35
2024-01-16T22:08:01.488Z,65.38
2024-01-16T22:10:29.856Z,79.10
2024-01-16T22:12:58.901Z,48.53
2024-01-16T22:15:27.265Z,37.72
2024-01-16T22:17:57.885Z,25.33
2024-01-16T22:20:31.261Z,20.23
2024-01-16T22:22:59.585Z,20.00
2024-01-16T22:25:29.442Z,23.63
2024-01-16T22:27:58.506Z,21.30
2024-01-16T22:30:27.387Z,23.83
2024-01-16T22:32:59.053Z,29.48
2024-01-16T22:35:27.530Z,29.83
2024-01-16T22:37:55.916Z,60.40
2024-01-16T22:40:24.264Z,59.90
2024-01-16T22:42:53.091Z,84.80
2024-01-16T22:45:23.826Z,113.93
2024-01-16T22:47:52.328Z,49.78
2024-01-16T22:50:22.768Z,62.83
2024-01-16T22:52:51.080Z,53.92
2024-01-16T22:55:20.880Z,48.67
2024-01-16T22:57:49.228Z,48.22
2024-01-16T23:00:22.482Z,37.20
2024-01-16T23:02:51.578Z,34.15
2024-01-16T23:05:21.326Z,37.67
2024-01-16T23:07:51.090Z,29.83
2024-01-16T23:10:21.094Z,40.85
2024-01-16T23:12:49.980Z,32.22
2024-01-16T23:15:18.546Z,31.48
2024-01-16T23:17:48.209Z,23.00
2024-01-16T23:20:17.475Z,27.20
2024-01-16T23:22:46.397Z,49.28
2024-01-16T23:25:17.320Z,35.67
2024-01-16T23:27:45.891Z,37.30
2024-01-16T23:30:14.572Z,26.35
2024-01-16T23:32:43.337Z,28.50
2024-01-16T23:35:12.219Z,26.88
2024-01-16T23:37:42.385Z,23.40
2024-01-16T23:40:13.453Z,24.67
2024-01-16T23:42:43.426Z,27.48
2024-01-16T23:45:20.692Z,27.52
2024-01-16T23:47:56.153Z,50.13
2024-01-16T23:50:24.791Z,47.58
2024-01-16T23:52:54.135Z,39.28
2024-01-16T23:55:22.610Z,59.88
2024-01-16T23:57:53.348Z,36.03
